Latest Weather Observations for Parawa West

IDS60801

Issued at 11:51 pm CST Tuesday 11 May 2021 (issued every 10 minutes, with the page automatically refreshed every 10 minutes)

About weather observations | Map of weather stations | Latest weather observations for SA | Other Formats
Station Details ID: 023875 Name: SECOND VALLEY FOREST AWS Lat: -35.57 Lon: 138.29 Height: 341.0 m
Data from the previous 72 hours. | See also: Recent months at Parawa West
Date/Time
CST
Temp
°C
App
Temp
°C
Dew
Point
°C
Rel
Hum
%
Delta-T
°C
Wind Press
QNH
hPa
Press
MSL
hPa
Rain since
9am
mm
Dir  Spd
km/h
Gust
km/h
Spd
kts
Gust
kts
11/11:30pm 10.2 6.4 6.0 75 2.0 ESE 15 20 8 11 1025.5 1025.5 0.4
11/11:00pm 10.3 5.5 5.7 73 2.2 SE 20 30 11 16 1025.8 1025.8 0.4
11/10:30pm 10.4 5.8 6.5 77 1.9 SE 20 24 11 13 1026.0 1026.0 0.4
11/10:00pm 10.3 7.0 6.3 76 1.9 SE 13 19 7 10 1026.2 1026.2 0.4
11/09:30pm 10.3 5.5 5.5 72 2.2 SE 20 26 11 14 1026.2 1026.2 0.4
11/09:00pm 10.4 4.9 5.8 73 2.1 SE 24 33 13 18 1026.1 1026.1 0.4
11/08:30pm 10.4 5.8 6.4 76 1.9 SE 20 28 11 15 1025.9 1025.9 0.4
11/08:00pm 10.3 5.8 7.0 80 1.6 SE 20 33 11 18 1025.9 1025.9 0.4
11/07:30pm 10.2 4.9 6.9 80 1.6 SE 24 33 13 18 1025.7 1025.7 0.4
11/07:00pm 10.0 4.3 6.9 81 1.5 SE 26 39 14 21 1025.4 1025.4 0.4
11/06:30pm 9.6 5.5 8.5 93 0.5 ESE 20 28 11 15 1025.2 1025.2 0.4
11/06:00pm 10.4 5.5 6.7 78 1.8 SE 22 32 12 17 1024.9 1024.8 0.4
11/05:30pm 10.3 5.4 5.3 71 2.3 SSE 20 26 11 14 1024.8 1024.7 0.4
11/05:00pm 10.4 5.7 5.2 70 2.4 SSE 19 26 10 14 1024.8 1024.7 0.4
11/04:30pm 10.9 5.8 6.1 72 2.3 SSE 22 32 12 17 1024.7 1024.6 0.4
11/04:00pm 11.1 6.3 7.2 77 1.9 SE 22 30 12 16 1024.7 1024.6 0.4
11/03:30pm 10.9 5.9 8.0 82 1.4 SE 24 30 13 16 1024.7 1024.6 0.4
11/03:00pm 11.1 6.2 8.5 84 1.3 SE 24 33 13 18 1024.6 1024.5 0.4
11/02:30pm 11.3 6.1 7.4 77 1.9 SE 24 35 13 19 1024.4 1024.3 0.4
11/02:00pm 11.5 6.3 7.2 75 2.1 SE 24 33 13 18 1024.5 1024.4 0.4
11/01:30pm 11.4 6.5 8.4 82 1.5 SE 24 35 13 19 1024.5 1024.4 0.4
11/01:00pm 11.1 7.0 8.5 84 1.3 SE 20 30 11 16 1024.7 1024.6 0.4
11/12:30pm 11.3 7.1 8.3 82 1.5 SE 20 32 11 17 1024.9 1024.8 0.4
11/12:00pm 11.0 7.6 9.1 88 1.0 SE 17 24 9 13 1025.2 1025.2 0.4
11/11:30am 10.7 6.1 9.8 94 0.5 SE 24 30 13 16 1025.4 1025.4 0.2
11/11:00am 11.0 6.7 9.4 90 0.8 SSE 22 30 12 16 1025.4 1025.4 0.0
11/10:30am 10.7 6.2 8.5 86 1.1 SSE 22 33 12 18 1025.3 1025.3 0.0
11/10:00am 10.9 6.7 8.1 83 1.4 SSE 20 28 11 15 1025.3 1025.3 0.0
11/09:30am 10.5 6.5 8.4 87 1.0 SSE 19 32 10 17 1025.2 1025.2 0.0
11/09:00am 10.0 6.5 8.8 92 0.6 SSE 17 30 9 16 1025.0 1024.9 2.0
11/08:30am 9.4 5.3 8.5 94 0.4 SE 20 32 11 17 1024.9 1024.8 2.0
11/08:00am 10.1 6.6 8.9 92 0.6 SSE 17 33 9 18 1024.4 1024.3 2.0
11/07:30am 9.3 4.3 7.9 91 0.7 SSE 24 33 13 18 1024.3 1024.2 2.0
11/07:00am 9.4 5.4 8.2 92 0.6 SSE 19 24 10 13 1023.9 1023.8 2.0
11/06:30am 9.4 5.8 8.3 93 0.5 SSE 17 24 9 13 1023.8 1023.7 2.0
11/06:00am 8.8 7.4 8.7 99 0.0 S 6 13 3 7 1023.6 1023.5 2.0
11/05:30am 8.8 6.4 8.5 98 0.1 S 11 15 6 8 1023.2 1023.2 1.6
11/05:00am 9.6 6.5 8.8 95 0.4 SSW 15 37 8 20 1023.0 1023.0 0.8
11/04:30am 9.1 5.3 7.5 90 0.8 SSW 17 24 9 13 1022.9 1022.9 0.8
11/04:00am 10.4 6.0 7.5 82 1.4 SSE 20 33 11 18 1022.4 1022.3 0.8
11/03:30am 10.1 5.8 7.0 81 1.5 S 19 24 10 13 1022.5 1022.4 0.8
11/03:00am 10.7 5.7 6.3 74 2.1 S 22 32 12 17 1022.3 1022.2 0.8
11/02:30am 10.7 6.0 6.1 73 2.2 S 20 33 11 18 1022.3 1022.2 0.8
11/02:00am 10.5 6.1 6.5 76 1.9 S 19 28 10 15 1022.3 1022.2 0.8
11/01:30am 10.5 5.8 5.9 73 2.2 SSE 20 28 11 15 1022.2 1022.1 0.8
11/01:00am 10.6 5.9 6.2 74 2.1 SSE 20 28 11 15 1022.0 1021.9 0.8
11/12:30am 10.4 6.0 6.7 78 1.8 SSE 19 26 10 14 1021.9 1021.8 0.8
11/12:00am 10.4 5.9 7.1 80 1.6 S 20 30 11 16 1022.0 1021.9 0.8
 
Date/Time
CST
Temp
°C
App
Temp
°C
Dew
Point
°C
Rel
Hum
%
Delta-T
°C
Wind Press
QNH
hPa
Press
MSL
hPa
Rain since
9am
mm
Dir  Spd
km/h
Gust
km/h
Spd
kts
Gust
kts
10/11:30pm 10.3 6.4 7.0 80 1.6 SSE 17 24 9 13 1021.7 1021.6 0.8
10/11:00pm 10.1 5.5 6.3 77 1.8 SSE 20 28 11 15 1021.7 1021.6 0.8
10/10:30pm 10.7 4.7 7.0 78 1.8 S 28 39 15 21 1021.7 1021.6 0.8
10/10:00pm 10.6 5.7 6.7 77 1.9 SSE 22 32 12 17 1021.7 1021.6 0.8
10/09:30pm 10.4 4.0 6.9 79 1.7 SSE 30 39 16 21 1021.3 1021.2 0.8
10/09:00pm 10.4 4.0 5.4 71 2.3 SSE 28 37 15 20 1021.3 1021.2 0.8
10/08:30pm 10.4 3.8 6.2 75 2.0 SSE 30 39 16 21 1021.1 1021.0 0.8
10/08:00pm 10.3 4.8 7.5 83 1.4 S 26 37 14 20 1020.9 1020.8 0.8
10/07:30pm 10.5 4.4 6.5 76 1.9 S 28 39 15 21 1020.5 1020.4 0.8
10/07:00pm 10.4 3.8 6.0 74 2.1 SSE 30 39 16 21 1019.9 1019.8 0.8
10/06:30pm 10.5 4.7 6.3 75 2.0 S 26 39 14 21 1019.6 1019.5 0.8
10/06:00pm 10.6 3.9 5.6 71 2.3 SSW 30 43 16 23 1019.2 1019.1 0.8
10/05:49pm 10.6 3.9 5.6 71 2.3 S 30 48 16 26 1019.0 1018.9 0.8
10/05:30pm 10.4 4.0 6.9 79 1.7 SSW 30 41 16 22 1018.6 1018.5 0.8
10/05:13pm 10.7 4.7 7.2 79 1.7 S 28 46 15 25 1018.2 1018.1 0.8
10/05:00pm 10.8 4.3 6.7 76 2.0 SSW 30 46 16 25 1018.0 1017.9 0.6
10/04:30pm 10.5 5.4 7.7 83 1.4 S 24 37 13 20 1017.7 1017.6 0.6
10/04:00pm 10.6 4.7 7.5 81 1.5 S 28 43 15 23 1017.5 1017.3 0.6
10/03:30pm 11.1 4.8 7.6 79 1.7 SSW 30 46 16 25 1017.0 1016.9 0.6
10/03:22pm 11.1 5.2 7.6 79 1.7 SSW 28 46 15 25 1016.9 1016.8 0.6
10/03:00pm 11.3 6.2 7.6 78 1.8 SSW 24 46 13 25 1016.5 1016.4 0.6
10/02:30pm 11.1 5.6 9.2 88 1.0 SSW 28 48 15 26 1016.1 1016.0 0.6
10/02:02pm 10.7 5.1 8.8 88 1.0 SSW 28 46 15 25 1015.9 1015.8 0.4
10/02:00pm 10.9 5.7 8.8 87 1.1 SSW 26 46 14 25 1015.9 1015.8 0.4
10/01:57pm 11.2 5.6 8.9 86 1.2 SSW 28 46 15 25 1015.9 1015.8 0.4
10/01:30pm 11.2 4.7 8.9 86 1.2 SSW 33 46 18 25 1015.6 1015.5 0.2
10/01:05pm 11.5 6.0 9.2 86 1.2 SSW 28 46 15 25 1015.4 1015.3 0.2
10/01:00pm 11.5 5.6 9.2 86 1.2 SSW 30 46 16 25 1015.5 1015.4 0.2
10/12:35pm 11.4 5.5 9.0 85 1.2 SSW 30 48 16 26 1015.3 1015.2 0.2
10/12:30pm 11.8 6.5 9.9 88 1.0 SSW 28 44 15 24 1015.2 1015.1 0.2
10/12:08pm 11.8 6.2 8.8 82 1.5 SSW 28 46 15 25 1015.0 1014.8 0.2
10/12:00pm 11.7 6.0 9.9 89 0.9 SSW 30 46 16 25 1014.9 1014.7 0.2
10/11:49am 11.2 5.8 9.6 90 0.8 SW 28 48 15 26 1015.0 1014.8 0.2
10/11:30am 11.2 6.5 9.1 87 1.1 SSW 24 39 13 21 1015.0 1014.8 0.2
10/11:00am 12.0 7.2 10.2 89 0.9 SSW 26 44 14 24 1014.7 1014.5 0.2
10/10:30am 12.2 6.9 9.9 86 1.2 SSW 28 48 15 26 1014.3 1014.1 0.2
10/10:00am 12.0 6.7 9.9 87 1.1 SW 28 48 15 26 1013.7 1013.6 0.2
10/09:30am 11.3 7.2 10.0 92 0.7 SW 22 41 12 22 1013.4 1013.3 0.2
10/09:00am 11.7 8.5 10.1 90 0.8 SW 17 33 9 18 1013.0 1012.9 6.2
10/08:30am 11.7 8.1 9.9 89 0.9 WSW 19 35 10 19 1012.7 1012.6 6.2
10/08:00am 11.7 7.9 9.8 88 1.0 WSW 20 39 11 21 1012.2 1012.0 6.2
10/07:30am 11.7 7.1 9.6 87 1.1 WSW 24 39 13 21 1011.7 1011.5 6.2
10/07:00am 12.0 6.3 9.7 86 1.2 W 30 54 16 29 1011.1 1010.9 6.2
10/06:30am 12.1 6.5 10.3 89 0.9 W 30 50 16 27 1010.7 1010.6 6.2
10/06:09am 12.6 7.4 11.7 94 0.5 W 30 52 16 28 1010.1 1009.9 6.2
10/06:00am 12.9 8.0 12.4 97 0.3 W 30 43 16 23 1010.0 1009.8 6.2
10/05:47am 13.2 7.5 13.0 99 0.1 WNW 35 57 19 31 1009.8 1009.6 6.0
10/05:30am 13.6 7.6 13.4 99 0.1 NW 37 56 20 30 1008.6 1008.4 3.6
10/05:00am 13.6 7.6 13.3 98 0.2 NW 37 56 20 30 1008.7 1008.5 2.0
10/04:30am 13.5 7.8 12.9 96 0.3 NW 35 57 19 31 1008.9 1008.7 2.0
10/04:00am 13.4 7.6 12.8 96 0.3 NW 35 57 19 31 1009.4 1009.2 2.0
10/03:30am 13.3 7.8 12.5 95 0.4 NW 33 57 18 31 1009.7 1009.5 2.0
10/03:02am 13.2 7.7 12.3 94 0.5 NW 33 52 18 28 1010.2 1010.1 1.8
10/03:00am 13.2 7.7 12.3 94 0.5 NW 33 46 18 25 1010.3 1010.2 1.8
10/02:41am 13.0 7.9 11.9 93 0.6 NW 30 48 16 26 1010.9 1010.8 1.8
10/02:30am 12.9 8.6 12.0 94 0.5 NW 26 41 14 22 1011.1 1010.9 1.8
10/02:00am 13.2 8.8 11.8 91 0.8 NW 26 44 14 24 1011.8 1011.6 1.6
10/01:30am 13.4 8.4 10.9 85 1.3 NW 28 48 15 26 1012.5 1012.3 1.6
10/01:14am 13.4 8.4 11.1 86 1.2 NW 28 46 15 25 1012.8 1012.7 1.6
10/01:00am 13.3 8.6 10.5 83 1.5 NW 26 43 14 23 1013.1 1013.0 1.6
10/12:30am 13.4 8.3 10.6 83 1.5 NW 28 48 15 26 1013.3 1013.2 1.6
10/12:25am 13.4 8.3 10.6 83 1.5 NW 28 48 15 26 1013.3 1013.2 1.6
10/12:00am 13.4 8.6 10.4 82 1.6 NW 26 39 14 21 1013.5 1013.4 1.6
 
Date/Time
CST
Temp
°C
App
Temp
°C
Dew
Point
°C
Rel
Hum
%
Delta-T
°C
Wind Press
QNH
hPa
Press
MSL
hPa
Rain since
9am
mm
Dir  Spd
km/h
Gust
km/h
Spd
kts
Gust
kts
09/11:30pm 13.4 8.3 10.6 83 1.5 NW 28 41 15 22 1013.8 1013.7 1.6
09/11:00pm 13.2 8.1 10.7 85 1.3 NW 28 41 15 22 1013.9 1013.8 1.6
09/10:30pm 13.0 7.9 10.5 85 1.3 NW 28 41 15 22 1014.4 1014.2 1.6
09/10:00pm 12.9 8.4 10.1 83 1.5 NW 24 39 13 21 1014.6 1014.4 1.6
09/09:30pm 13.1 8.6 10.1 82 1.6 NW 24 37 13 20 1015.1 1014.9 1.6
09/09:00pm 13.2 9.1 10.2 82 1.6 NW 22 33 12 18 1015.6 1015.5 1.6
09/08:30pm 13.2 9.8 10.6 84 1.4 NW 19 28 10 15 1015.8 1015.7 1.6
09/08:00pm 12.9 9.8 10.3 84 1.4 NNW 17 30 9 16 1015.5 1015.4 1.6
09/07:30pm 13.2 10.1 10.2 82 1.6 NW 17 32 9 17 1015.7 1015.6 1.6
09/07:00pm 12.9 10.5 10.1 83 1.5 NNW 13 20 7 11 1015.7 1015.6 1.6
09/06:30pm 12.9 10.4 9.7 81 1.7 NW 13 24 7 13 1016.0 1015.9 1.6
09/06:00pm 13.3 10.7 9.2 76 2.1 WNW 13 24 7 13 1016.3 1016.2 1.6
09/05:30pm 13.1 10.0 9.0 76 2.1 WNW 15 26 8 14 1016.1 1016.0 1.6
09/05:00pm 13.8 10.1 9.6 76 2.2 WNW 19 28 10 15 1016.0 1015.9 1.6
09/04:30pm 14.2 10.5 9.6 74 2.4 WNW 19 28 10 15 1016.1 1016.0 1.4
09/04:00pm 14.4 10.5 9.6 73 2.5 WNW 20 33 11 18 1016.0 1015.9 1.4
09/03:30pm 14.9 11.6 9.7 71 2.7 WNW 17 28 9 15 1016.2 1016.1 1.4
09/03:00pm 15.0 10.9 8.7 66 3.3 WNW 20 33 11 18 1016.3 1016.2 1.4
09/02:30pm 14.9 11.0 9.3 69 2.9 WNW 20 30 11 16 1016.3 1016.2 1.4
09/02:00pm 15.1 11.3 9.2 68 3.1 WNW 19 30 10 16 1016.5 1016.4 1.4
09/01:30pm 15.2 11.8 10.4 73 2.6 NW 19 32 10 17 1017.0 1016.9 1.4
09/01:00pm 14.7 11.9 11.5 81 1.7 NW 17 28 9 15 1017.5 1017.3 1.4
09/12:30pm 13.2 11.0 10.7 85 1.3 WNW 13 28 7 15 1017.8 1017.7 1.4
09/12:00pm 13.7 10.1 10.5 81 1.7 NW 20 32 11 17 1018.3 1018.2 1.4
09/11:30am 13.8 10.5 10.8 82 1.6 WNW 19 33 10 18 1018.6 1018.5 1.4
09/11:00am 13.4 10.3 10.2 81 1.7 WNW 17 30 9 16 1018.9 1018.8 1.4
09/10:30am 13.0 11.2 12.2 95 0.4 WNW 13 19 7 10 1019.1 1019.0 1.4
09/10:00am 12.2 10.6 11.7 97 0.3 W 11 19 6 10 1019.2 1019.1 1.4
09/09:30am 12.3 10.8 11.8 97 0.3 WNW 11 22 6 12 1019.1 1019.0 0.6
09/09:00am 12.3 11.1 11.5 95 0.4 NW 9 13 5 7 1019.1 1019.0 0.6
09/08:30am 11.6 10.9 11.3 98 0.2 WNW 6 7 3 4 1019.1 1019.0 0.6
09/08:00am 11.4 10.6 11.1 98 0.2 NW 6 7 3 4 1018.9 1018.8 0.6
09/07:30am 11.0 10.9 10.8 99 0.1 N 2 6 1 3 1018.7 1018.6 0.6
09/07:00am 10.5 10.2 10.2 98 0.2 NNW 2 4 1 2 1018.7 1018.6 0.6
09/06:30am 10.3 9.5 9.8 97 0.3 N 4 6 2 3 1018.4 1018.3 0.6
09/06:00am 10.2 9.8 9.6 96 0.3 N 2 6 1 3 1018.2 1018.1 0.6
09/05:30am 10.7 10.0 10.1 96 0.3 NW 4 6 2 3 1018.0 1017.9 0.6
09/05:00am 10.8 9.7 9.9 94 0.5 NW 6 7 3 4 1018.0 1017.9 0.6
09/04:30am 11.1 10.1 10.2 94 0.5 NW 6 6 3 3 1017.9 1017.8 0.6
09/04:00am 10.9 10.1 9.8 93 0.6 WNW 4 6 2 3 1017.8 1017.7 0.6
09/03:30am 10.8 10.0 9.6 92 0.6 WNW 4 6 2 3 1017.9 1017.8 0.6
09/03:00am 11.1 10.4 9.9 92 0.6 WSW 4 6 2 3 1018.3 1018.2 0.6
09/02:30am 10.8 10.1 9.9 94 0.5 WSW 4 4 2 2 1018.5 1018.4 0.6
09/02:00am 10.8 9.7 10.0 95 0.4 WSW 6 6 3 3 1018.7 1018.6 0.6
09/01:30am 10.8 10.1 9.9 94 0.5 WSW 4 7 2 4 1018.7 1018.6 0.6
09/01:00am 11.1 10.0 9.9 92 0.6 WSW 6 7 3 4 1018.7 1018.6 0.6
09/12:30am 10.9 10.2 10.1 95 0.4 W 4 6 2 3 1018.6 1018.5 0.6
09/12:00am 11.3 10.7 10.5 95 0.4 SW 4 4 2 2 1018.7 1018.6 0.6

Other formats

Comma delimited format used in spreadsheet applications
http://www.bom.gov.au/fwo/IDS60801/IDS60801.94811.axf

JavaScript Object Notation format (JSON) in row-major order
http://www.bom.gov.au/fwo/IDS60801/IDS60801.94811.json

Data quality

Most of these data are generated automatically and are frequently updated. Quality checks on data are not normally performed. It is possible for incorrect values to appear. Refer to information at About Latest Weather Observations and please check the disclaimer before using these data.